createdAt,value
2022-11-14T00:00:55.347Z,13.15
2022-11-14T00:03:41.929Z,17.05
2022-11-14T00:06:28.303Z,15.13
2022-11-14T00:09:14.816Z,14.50
2022-11-14T00:12:01.350Z,15.10
2022-11-14T00:14:49.133Z,14.10
2022-11-14T00:17:35.557Z,13.68
2022-11-14T00:20:22.156Z,15.20
2022-11-14T00:23:08.656Z,16.48
2022-11-14T00:25:55.043Z,17.50
2022-11-14T00:28:41.539Z,15.05
2022-11-14T00:31:29.270Z,16.30
2022-11-14T00:34:15.693Z,17.50
2022-11-14T00:37:02.523Z,18.35
2022-11-14T00:39:48.773Z,16.30
2022-11-14T00:42:35.590Z,15.65
2022-11-14T00:45:22.165Z,18.23
2022-11-14T00:48:09.545Z,19.42
2022-11-14T00:50:56.141Z,16.23
2022-11-14T00:53:42.638Z,17.45
2022-11-14T00:56:29.090Z,14.52
2022-11-14T00:59:15.526Z,15.13
2022-11-14T01:02:02.273Z,17.92
2022-11-14T01:04:49.773Z,19.02
2022-11-14T01:07:36.278Z,17.83
2022-11-14T01:10:22.994Z,19.20
2022-11-14T01:13:09.672Z,15.77
2022-11-14T01:15:56.030Z,20.27
2022-11-14T01:18:43.110Z,19.10
2022-11-14T01:21:30.917Z,17.20
2022-11-14T01:24:17.400Z,18.35
2022-11-14T01:27:04.263Z,20.55
2022-11-14T01:29:50.355Z,17.65
2022-11-14T01:32:36.938Z,18.15
2022-11-14T01:35:23.184Z,18.80
2022-11-14T01:38:15.330Z,19.70
2022-11-14T01:41:02.904Z,19.30
2022-11-14T01:43:49.529Z,19.52
2022-11-14T01:46:39.536Z,21.02
2022-11-14T01:49:31.502Z,20.27
2022-11-14T01:52:21.539Z,21.05
2022-11-14T01:55:11.141Z,18.50
2022-11-14T01:57:58.601Z,21.33
2022-11-14T02:00:45.446Z,20.55
2022-11-14T02:03:34.418Z,20.40
2022-11-14T02:06:26.864Z,20.77
2022-11-14T02:09:13.983Z,19.48
2022-11-14T02:12:03.535Z,21.10
2022-11-14T02:14:55.260Z,20.90
2022-11-14T02:17:42.552Z,17.38
2022-11-14T02:20:34.860Z,22.08
2022-11-14T02:23:27.718Z,22.80
2022-11-14T02:26:14.187Z,21.08
2022-11-14T02:29:00.774Z,19.98
2022-11-14T02:31:47.185Z,21.33
2022-11-14T02:34:33.936Z,19.08
2022-11-14T02:37:21.815Z,21.48
2022-11-14T02:40:09.732Z,21.17
2022-11-14T02:42:56.122Z,23.25
2022-11-14T02:45:42.544Z,19.95
2022-11-14T02:48:29.411Z,24.88
2022-11-14T02:51:16.009Z,21.35
2022-11-14T02:54:04.000Z,22.25
2022-11-14T02:56:50.715Z,20.80
2022-11-14T02:59:37.213Z,23.23
2022-11-14T03:02:23.671Z,21.17
2022-11-14T03:05:10.242Z,24.38
2022-11-14T03:07:56.804Z,25.90
2022-11-14T03:10:44.603Z,21.15
2022-11-14T03:13:31.041Z,23.95
2022-11-14T03:16:17.448Z,24.48
2022-11-14T03:19:03.584Z,21.90
2022-11-14T03:21:50.168Z,20.30
2022-11-14T03:24:36.584Z,23.20
2022-11-14T03:27:24.497Z,20.20
2022-11-14T03:30:12.231Z,20.00
2022-11-14T03:32:58.928Z,22.77
2022-11-14T03:35:45.131Z,19.67
2022-11-14T03:38:32.594Z,21.60
2022-11-14T03:41:18.878Z,19.42
2022-11-14T03:44:06.661Z,20.33
2022-11-14T03:46:52.990Z,21.38
2022-11-14T03:49:39.389Z,21.65
2022-11-14T03:52:26.738Z,22.02
2022-11-14T03:55:13.308Z,21.52
2022-11-14T03:57:59.920Z,25.30
2022-11-14T04:00:47.837Z,23.15
2022-11-14T04:03:34.179Z,22.10
2022-11-14T04:06:20.651Z,21.33
2022-11-14T04:09:07.386Z,21.67
2022-11-14T04:11:53.570Z,22.58
2022-11-14T04:14:40.189Z,21.63
2022-11-14T04:17:27.912Z,22.45
2022-11-14T04:20:15.427Z,22.40
2022-11-14T04:23:01.730Z,26.42
2022-11-14T04:25:48.587Z,21.73
2022-11-14T04:28:34.810Z,22.95
2022-11-14T04:31:21.433Z,20.40
2022-11-14T04:34:08.969Z,23.35
2022-11-14T04:36:55.502Z,25.77
2022-11-14T04:39:41.712Z,22.80
2022-11-14T04:42:28.316Z,24.45
2022-11-14T04:45:14.758Z,22.67
2022-11-14T04:48:01.375Z,20.33
2022-11-14T04:50:49.240Z,25.08
2022-11-14T04:53:35.724Z,22.20
2022-11-14T04:56:23.279Z,26.50
2022-11-14T04:59:09.688Z,23.30
2022-11-14T05:01:56.299Z,23.15
2022-11-14T05:04:44.308Z,22.77
2022-11-14T05:07:31.820Z,23.77
2022-11-14T05:10:18.395Z,23.45
2022-11-14T05:13:04.896Z,23.95
2022-11-14T05:15:51.411Z,27.85
2022-11-14T05:18:40.660Z,23.63
2022-11-14T05:21:29.257Z,26.90
2022-11-14T05:24:16.899Z,23.95
2022-11-14T05:27:03.415Z,24.92
2022-11-14T05:29:49.876Z,27.67
2022-11-14T05:32:36.331Z,24.85
2022-11-14T05:35:22.327Z,27.98
2022-11-14T05:38:08.600Z,25.35
2022-11-14T05:40:56.492Z,24.85
2022-11-14T05:43:43.502Z,27.00
2022-11-14T05:46:29.683Z,23.15
2022-11-14T05:49:21.650Z,27.80
2022-11-14T05:52:08.492Z,26.65
2022-11-14T05:54:55.135Z,28.52
2022-11-14T05:57:42.804Z,24.70
2022-11-14T06:00:29.318Z,24.02
2022-11-14T06:03:15.944Z,27.95
2022-11-14T06:06:03.105Z,26.20
2022-11-14T06:08:50.394Z,26.45
2022-11-14T06:11:36.559Z,27.70
2022-11-14T06:14:24.455Z,30.48
2022-11-14T06:17:10.949Z,24.20
2022-11-14T06:19:57.613Z,28.13
2022-11-14T06:22:44.040Z,29.08
2022-11-14T06:25:31.097Z,24.67
2022-11-14T06:28:17.537Z,29.90
2022-11-14T06:31:06.315Z,24.38
2022-11-14T06:33:52.587Z,24.83
2022-11-14T06:36:39.165Z,23.95
2022-11-14T06:39:25.481Z,25.33
2022-11-14T06:42:11.977Z,25.75
2022-11-14T06:44:58.277Z,31.17
2022-11-14T06:47:46.053Z,28.77
2022-11-14T06:50:32.552Z,29.92
2022-11-14T06:53:19.201Z,28.40
2022-11-14T06:56:07.945Z,29.25
2022-11-14T06:58:54.153Z,28.55
2022-11-14T07:01:40.721Z,30.10
2022-11-14T07:04:28.562Z,29.10
2022-11-14T07:07:15.022Z,29.88
2022-11-14T07:10:01.509Z,30.17
2022-11-14T07:12:48.575Z,28.38
2022-11-14T07:15:35.142Z,30.75
2022-11-14T07:18:22.125Z,31.75
2022-11-14T07:21:13.125Z,32.60
2022-11-14T07:23:59.694Z,32.55
2022-11-14T07:26:46.905Z,28.55
2022-11-14T07:29:33.548Z,33.92
2022-11-14T07:32:20.033Z,30.60
2022-11-14T07:35:07.083Z,31.38
2022-11-14T07:37:54.701Z,37.22
2022-11-14T07:40:41.360Z,35.10
2022-11-14T07:43:28.647Z,33.33
2022-11-14T07:46:17.250Z,35.25
2022-11-14T07:49:03.619Z,34.67
2022-11-14T07:51:50.031Z,34.42
2022-11-14T07:54:38.377Z,36.85
2022-11-14T07:57:25.284Z,39.20
2022-11-14T08:00:14.335Z,38.13
2022-11-14T08:03:00.641Z,36.83
2022-11-14T08:05:50.034Z,42.20
2022-11-14T08:08:37.190Z,41.78
2022-11-14T08:11:38.872Z,42.15
2022-11-14T08:14:25.084Z,41.03
2022-11-14T08:17:11.474Z,37.53
2022-11-14T08:19:57.916Z,39.22
2022-11-14T08:22:44.364Z,37.20
2022-11-14T08:25:31.020Z,42.65
2022-11-14T08:28:18.721Z,39.55
2022-11-14T08:31:06.023Z,41.67
2022-11-14T08:33:52.887Z,41.63
2022-11-14T08:36:39.102Z,44.88
2022-11-14T08:39:25.761Z,48.38
2022-11-14T08:42:11.998Z,43.65
2022-11-14T08:44:59.824Z,37.78
2022-11-14T08:47:52.544Z,42.97
2022-11-14T08:50:38.736Z,52.63
2022-11-14T08:53:25.371Z,42.50
2022-11-14T08:56:12.338Z,44.33
2022-11-14T08:58:58.561Z,42.00
2022-11-14T09:01:46.524Z,41.83
2022-11-14T09:04:32.860Z,46.58
2022-11-14T09:07:19.347Z,43.85
2022-11-14T09:10:07.238Z,41.05
2022-11-14T09:12:56.788Z,47.13
2022-11-14T09:15:43.674Z,43.35
2022-11-14T09:18:32.757Z,48.38
2022-11-14T09:21:19.267Z,46.50
2022-11-14T09:24:06.166Z,42.58
2022-11-14T09:26:56.630Z,50.30
2022-11-14T09:29:43.702Z,48.35
2022-11-14T09:32:30.258Z,44.85
2022-11-14T09:35:18.446Z,44.15
2022-11-14T09:38:06.883Z,47.05
2022-11-14T09:41:01.513Z,43.47
2022-11-14T09:44:20.933Z,42.80
2022-11-14T09:47:16.668Z,47.53
2022-11-14T09:50:12.298Z,50.38
2022-11-14T09:53:06.400Z,43.90
2022-11-14T09:55:53.439Z,47.08
2022-11-14T09:58:41.217Z,43.72
2022-11-14T10:01:37.663Z,44.75
2022-11-14T10:04:33.015Z,52.40
2022-11-14T10:07:31.433Z,43.03
2022-11-14T10:10:34.459Z,38.60
2022-11-14T10:13:47.652Z,42.25
2022-11-14T10:16:43.667Z,41.42
2022-11-14T10:19:42.741Z,45.53
2022-11-14T10:23:00.078Z,43.53
2022-11-14T10:25:56.821Z,41.78
2022-11-14T10:29:07.517Z,43.88
2022-11-14T10:32:00.878Z,44.05
2022-11-14T10:34:52.238Z,42.38
2022-11-14T10:37:42.848Z,45.00
2022-11-14T10:40:37.425Z,45.63
2022-11-14T10:43:30.155Z,46.97
2022-11-14T10:46:20.875Z,43.83
2022-11-14T10:49:16.696Z,47.63
2022-11-14T10:52:07.493Z,42.45
2022-11-14T10:55:00.427Z,45.67
2022-11-14T10:57:47.382Z,42.55
2022-11-14T11:00:34.937Z,40.58
2022-11-14T11:03:21.248Z,46.22
2022-11-14T11:06:25.072Z,44.55
2022-11-14T11:09:33.423Z,43.20
2022-11-14T11:12:22.776Z,44.75
2022-11-14T11:15:16.655Z,47.42
2022-11-14T11:18:06.183Z,42.75
2022-11-14T11:21:06.981Z,45.60
2022-11-14T11:23:55.591Z,52.83
2022-11-14T11:26:41.820Z,51.83
2022-11-14T11:29:28.172Z,48.67
2022-11-14T11:32:27.372Z,44.83
2022-11-14T11:35:16.989Z,45.83
2022-11-14T11:38:05.230Z,46.58
2022-11-14T11:40:55.209Z,45.92
2022-11-14T11:43:46.580Z,47.03
2022-11-14T11:46:42.859Z,47.42
2022-11-14T11:49:37.958Z,47.50
2022-11-14T11:52:33.520Z,49.90
2022-11-14T11:55:25.460Z,51.47
2022-11-14T11:58:18.064Z,51.28
2022-11-14T12:01:05.452Z,46.60
2022-11-14T12:03:53.730Z,50.35
2022-11-14T12:06:45.708Z,47.10
2022-11-14T12:10:08.629Z,45.65
2022-11-14T12:13:07.409Z,44.20
2022-11-14T12:16:10.162Z,46.55
2022-11-14T12:19:30.749Z,48.25
2022-11-14T12:22:47.692Z,43.95
2022-11-14T12:25:49.292Z,48.90
2022-11-14T12:29:15.263Z,50.08
2022-11-14T12:32:07.661Z,54.15
2022-11-14T12:34:54.081Z,52.55
2022-11-14T12:37:48.074Z,44.90
2022-11-14T12:40:39.507Z,48.67
2022-11-14T12:43:36.961Z,53.58
2022-11-14T12:46:24.351Z,51.85
2022-11-14T12:49:38.283Z,52.25
2022-11-14T12:52:49.272Z,48.60
2022-11-14T12:56:08.726Z,50.17
2022-11-14T12:59:19.522Z,52.42
2022-11-14T13:02:30.943Z,49.15
2022-11-14T13:05:29.775Z,49.22
2022-11-14T13:08:51.644Z,50.58
2022-11-14T13:11:59.781Z,45.17
2022-11-14T13:15:10.805Z,53.08
2022-11-14T13:18:33.828Z,48.28
2022-11-14T13:21:45.330Z,46.58
2022-11-14T13:25:02.155Z,52.55
2022-11-14T13:31:20.416Z,47.42
2022-11-14T13:34:34.127Z,48.75
2022-11-14T13:37:35.731Z,47.28
2022-11-14T13:40:28.217Z,49.58
2022-11-14T13:43:23.041Z,52.17
2022-11-14T13:46:20.967Z,51.22
2022-11-14T13:49:30.240Z,49.45
2022-11-14T13:52:17.706Z,44.80
2022-11-14T13:55:04.320Z,49.70
2022-11-14T13:58:03.552Z,44.50
2022-11-14T14:01:06.276Z,48.72
2022-11-14T14:04:12.209Z,49.28
2022-11-14T14:07:08.484Z,48.08
2022-11-14T14:10:03.938Z,50.08
2022-11-14T14:13:03.860Z,45.92
2022-11-14T14:16:03.001Z,45.72
2022-11-14T14:18:59.601Z,47.00
2022-11-14T14:21:54.772Z,45.88
2022-11-14T14:24:50.771Z,42.22
2022-11-14T14:27:44.686Z,42.85
2022-11-14T14:30:30.921Z,46.55
2022-11-14T14:33:17.681Z,49.90
2022-11-14T14:36:04.093Z,46.13
2022-11-14T14:38:52.246Z,44.33
2022-11-14T14:41:38.998Z,45.30
2022-11-14T14:44:28.394Z,46.10
2022-11-14T14:47:19.119Z,46.15
2022-11-14T14:50:14.056Z,46.17
2022-11-14T14:53:01.492Z,43.75
2022-11-14T14:55:55.689Z,48.60
2022-11-14T14:58:42.266Z,44.33
2022-11-14T15:01:33.963Z,42.55
2022-11-14T15:04:22.864Z,47.67
2022-11-14T15:07:20.768Z,39.22
2022-11-14T15:10:08.761Z,43.47
2022-11-14T15:12:57.283Z,43.53
2022-11-14T15:15:44.447Z,48.13
2022-11-14T15:18:33.255Z,41.95
2022-11-14T15:21:28.216Z,45.40
2022-11-14T15:24:17.595Z,45.53
2022-11-14T15:27:06.377Z,52.25
2022-11-14T15:29:58.415Z,50.85
2022-11-14T15:32:50.861Z,52.80
2022-11-14T15:35:38.609Z,46.20
2022-11-14T15:41:32.694Z,43.45
2022-11-14T15:44:32.936Z,49.80
2022-11-14T15:47:23.657Z,44.00
2022-11-14T15:50:26.535Z,41.92
2022-11-14T15:53:21.762Z,48.65
2022-11-14T15:56:11.724Z,50.72
2022-11-14T15:58:57.953Z,52.88
2022-11-14T16:01:46.614Z,53.65
2022-11-14T16:04:37.301Z,48.25
2022-11-14T16:07:23.853Z,50.55
2022-11-14T16:10:15.664Z,48.35
2022-11-14T16:13:02.057Z,49.53
2022-11-14T16:15:48.767Z,51.08
2022-11-14T16:18:35.232Z,51.65
2022-11-14T16:21:23.153Z,48.03
2022-11-14T16:24:16.321Z,52.70
2022-11-14T16:27:03.014Z,51.55
2022-11-14T16:29:49.424Z,46.90
2022-11-14T16:32:35.830Z,58.53
2022-11-14T16:35:23.290Z,59.17
2022-11-14T16:38:14.257Z,57.70
2022-11-14T16:41:01.101Z,53.17
2022-11-14T16:43:47.797Z,52.45
2022-11-14T16:46:34.259Z,49.03
2022-11-14T16:49:20.933Z,51.47
2022-11-14T16:52:08.719Z,54.42
2022-11-14T16:54:56.645Z,54.28
2022-11-14T16:57:42.910Z,58.15
2022-11-14T17:00:29.397Z,52.58
2022-11-14T17:03:16.223Z,55.53
2022-11-14T17:06:02.785Z,50.83
2022-11-14T17:08:49.247Z,51.22
2022-11-14T17:11:36.801Z,56.55
2022-11-14T17:14:23.421Z,45.17
2022-11-14T17:17:09.736Z,53.05
2022-11-14T17:19:56.017Z,52.80
2022-11-14T17:22:42.586Z,54.35
2022-11-14T17:25:28.956Z,55.00
2022-11-14T17:28:16.814Z,54.75
2022-11-14T17:31:08.035Z,51.08
2022-11-14T17:33:55.827Z,55.42
2022-11-14T17:36:42.449Z,58.90
2022-11-14T17:39:29.863Z,50.05
2022-11-14T17:42:16.266Z,52.97
2022-11-14T17:45:04.214Z,48.50
2022-11-14T17:47:50.621Z,51.33
2022-11-14T17:50:40.317Z,50.58
2022-11-14T17:53:26.854Z,52.08
2022-11-14T17:56:15.087Z,53.45
2022-11-14T17:59:01.387Z,46.13
2022-11-14T18:01:49.333Z,53.20
2022-11-14T18:04:35.982Z,57.22
2022-11-14T18:07:22.260Z,50.28
2022-11-14T18:10:09.246Z,47.50
2022-11-14T18:12:55.929Z,52.38
2022-11-14T18:15:42.234Z,53.58
2022-11-14T18:18:31.489Z,51.20
2022-11-14T18:21:19.920Z,49.13
2022-11-14T18:24:06.874Z,53.70
2022-11-14T18:26:53.268Z,52.35
2022-11-14T18:29:39.754Z,53.22
2022-11-14T18:32:26.061Z,47.92
2022-11-14T18:35:13.705Z,56.33
2022-11-14T18:38:00.235Z,47.83
2022-11-14T18:40:46.917Z,54.13
2022-11-14T18:43:34.131Z,52.78
2022-11-14T18:46:22.574Z,50.67
2022-11-14T18:49:09.420Z,53.58
2022-11-14T18:51:57.210Z,51.28
2022-11-14T18:54:43.365Z,51.20
2022-11-14T18:57:30.011Z,46.40
2022-11-14T19:00:17.226Z,55.38
2022-11-14T19:03:06.218Z,57.30
2022-11-14T19:05:52.631Z,51.50
2022-11-14T19:08:41.142Z,48.85
2022-11-14T19:11:44.865Z,50.25
2022-11-14T19:14:31.507Z,51.75
2022-11-14T19:17:20.837Z,51.10
2022-11-14T19:20:14.011Z,47.20
2022-11-14T19:23:00.726Z,54.38
2022-11-14T19:25:48.569Z,50.92
2022-11-14T19:28:34.785Z,50.00
2022-11-14T19:31:22.674Z,48.67
2022-11-14T19:34:09.952Z,48.80
2022-11-14T19:37:00.940Z,46.63
2022-11-14T19:39:47.539Z,47.42
2022-11-14T19:42:35.456Z,48.72
2022-11-14T19:45:22.096Z,47.05
2022-11-14T19:48:08.673Z,47.88
2022-11-14T19:51:00.475Z,55.40
2022-11-14T19:53:47.656Z,47.38
2022-11-14T19:56:34.003Z,50.30
2022-11-14T19:59:24.616Z,44.80
2022-11-14T20:02:13.771Z,48.60
2022-11-14T20:05:00.457Z,47.75
2022-11-14T20:07:46.720Z,50.78
2022-11-14T20:10:47.246Z,48.00
2022-11-14T20:13:35.804Z,51.90
2022-11-14T20:16:25.812Z,47.90
2022-11-14T20:19:13.526Z,46.78
2022-11-14T20:21:59.830Z,44.38
2022-11-14T20:24:46.673Z,48.50
2022-11-14T20:27:32.783Z,51.30
2022-11-14T20:30:19.371Z,45.70
2022-11-14T20:33:07.289Z,55.40
2022-11-14T20:35:53.623Z,49.22
2022-11-14T20:38:40.143Z,49.90
2022-11-14T20:41:26.861Z,48.00
2022-11-14T20:44:13.045Z,50.08
2022-11-14T20:46:59.533Z,44.25
2022-11-14T20:49:47.499Z,47.95
2022-11-14T20:52:35.278Z,47.75
2022-11-14T20:55:21.525Z,48.80
2022-11-14T20:58:07.828Z,45.95
2022-11-14T21:00:57.974Z,51.63
2022-11-14T21:03:44.631Z,45.03
2022-11-14T21:06:32.424Z,46.88
2022-11-14T21:09:18.841Z,48.17
2022-11-14T21:12:05.805Z,46.30
2022-11-14T21:14:52.261Z,46.08
2022-11-14T21:17:38.373Z,45.45
2022-11-14T21:20:24.813Z,48.20
2022-11-14T21:23:12.615Z,44.83
2022-11-14T21:26:03.692Z,43.63
2022-11-14T21:28:51.650Z,45.92
2022-11-14T21:31:40.259Z,41.22
2022-11-14T21:34:26.477Z,50.17
2022-11-14T21:37:12.616Z,49.75
2022-11-14T21:40:00.591Z,53.75
2022-11-14T21:42:47.448Z,52.22
2022-11-14T21:45:33.616Z,55.90
2022-11-14T21:48:19.913Z,46.63
2022-11-14T21:51:07.691Z,52.60
2022-11-14T21:53:55.658Z,45.83
2022-11-14T21:56:43.262Z,44.47
2022-11-14T21:59:30.652Z,49.92
2022-11-14T22:02:34.429Z,45.38
2022-11-14T22:05:20.931Z,43.60
2022-11-14T22:08:07.578Z,48.28
2022-11-14T22:10:54.055Z,47.25
2022-11-14T22:13:41.900Z,46.03
2022-11-14T22:16:28.448Z,46.45
2022-11-14T22:19:15.034Z,43.45
2022-11-14T22:22:01.618Z,45.60
2022-11-14T22:24:47.782Z,50.92
2022-11-14T22:27:34.124Z,50.28
2022-11-14T22:30:22.034Z,46.05
2022-11-14T22:33:08.343Z,45.40
2022-11-14T22:35:54.864Z,46.88
2022-11-14T22:38:42.444Z,46.25
2022-11-14T22:41:32.563Z,47.83
2022-11-14T22:44:19.187Z,47.45
2022-11-14T22:47:06.997Z,50.08
2022-11-14T22:49:53.343Z,46.60
2022-11-14T22:52:39.883Z,48.08
2022-11-14T22:55:26.360Z,46.70
2022-11-14T22:58:13.334Z,50.92
2022-11-14T23:00:59.882Z,43.50
2022-11-14T23:03:48.395Z,44.97
2022-11-14T23:06:35.651Z,47.28
2022-11-14T23:09:22.044Z,48.55
2022-11-14T23:12:08.646Z,49.25
2022-11-14T23:14:54.862Z,45.38
2022-11-14T23:17:41.426Z,47.47
2022-11-14T23:20:29.468Z,48.50
2022-11-14T23:23:15.976Z,46.58
2022-11-14T23:26:06.487Z,48.60
2022-11-14T23:28:53.369Z,49.53
2022-11-14T23:31:39.542Z,48.95
2022-11-14T23:34:26.051Z,48.92
2022-11-14T23:37:13.989Z,53.55
2022-11-14T23:40:00.244Z,53.85
2022-11-14T23:42:46.700Z,55.85
2022-11-14T23:45:33.366Z,47.53
2022-11-14T23:48:21.478Z,52.42
2022-11-14T23:51:08.129Z,47.67
2022-11-14T23:53:56.033Z,49.95
2022-11-14T23:56:42.657Z,52.95
2022-11-14T23:59:29.161Z,47.88
